Time;durP1;ratioP1;P1;durP2;ratioP2;P2;SDS_P1;SDS_P2;PMS_P1;PMS_P2;Temp;Humidity;BMP_temperature;BMP_pressure;BME280_temperature;BME280_humidity;BME280_pressure;Samples;Min_cycle;Max_cycle;Signal;HPM_P1;HPM_P2
2024/02/11 00:01:12;;;;;;;32.72;20.42;;;;;;;5.51;100.00;99129.34;10102701;28;20051;-75
2024/02/11 00:06:10;;;;;;;30.98;21.02;;;;;;;5.61;100.00;99112.69;10093671;28;20042;-73
2024/02/11 00:11:12;;;;;;;30.42;19.70;;;;;;;5.51;100.00;99104.94;10108826;28;20043;-74
2024/02/11 00:16:10;;;;;;;35.38;20.88;;;;;;;5.37;100.00;99104.34;10103069;28;20082;-74
2024/02/11 00:21:07;;;;;;;30.88;19.73;;;;;;;5.49;100.00;99090.91;10104118;28;20049;-75
2024/02/11 00:26:06;;;;;;;33.63;21.40;;;;;;;5.44;100.00;99083.75;10095418;28;20117;-73
2024/02/11 00:31:03;;;;;;;31.80;20.30;;;;;;;5.28;100.00;99075.31;10100496;28;20550;-73
2024/02/11 00:36:00;;;;;;;34.13;20.58;;;;;;;5.46;100.00;99088.84;10107872;28;20089;-73
2024/02/11 00:40:57;;;;;;;30.65;21.05;;;;;;;5.37;100.00;99098.91;10093995;28;20310;-74
2024/02/11 00:45:53;;;;;;;35.90;20.70;;;;;;;5.24;100.00;99087.94;10106649;28;20054;-74
2024/02/11 00:50:50;;;;;;;34.45;21.38;;;;;;;5.38;100.00;99085.03;10105070;28;20073;-75
2024/02/11 00:55:46;;;;;;;36.35;20.20;;;;;;;5.35;100.00;99085.66;10104334;28;20050;-73
2024/02/11 01:00:44;;;;;;;34.03;20.38;;;;;;;5.43;100.00;99097.59;10107869;28;20502;-75
2024/02/11 01:05:43;;;;;;;32.95;20.35;;;;;;;5.32;100.00;99085.53;10098533;28;20049;-73
2024/02/11 01:10:40;;;;;;;35.15;21.77;;;;;;;5.34;100.00;99077.84;10100982;28;20503;-75
2024/02/11 01:15:37;;;;;;;30.85;20.30;;;;;;;5.28;100.00;99075.31;10104854;28;20074;-72
2024/02/11 01:20:33;;;;;;;34.72;21.15;;;;;;;5.32;100.00;99075.50;10106847;28;20043;-74
2024/02/11 01:25:30;;;;;;;30.80;20.73;;;;;;;5.37;100.00;99088.06;10102085;28;20507;-73
2024/02/11 01:30:26;;;;;;;29.25;20.27;;;;;;;5.30;100.00;99087.78;10093464;28;21044;-73
2024/02/11 01:35:23;;;;;;;29.58;19.63;;;;;;;5.28;100.00;99099.72;10101404;28;20049;-72
2024/02/11 01:40:20;;;;;;;26.35;18.60;;;;;;;5.41;100.00;99094.44;10108782;28;20138;-74
2024/02/11 01:45:17;;;;;;;27.88;19.10;;;;;;;5.38;100.00;99070.69;10103366;28;20051;-75
2024/02/11 01:50:16;;;;;;;27.35;19.95;;;;;;;5.32;100.00;99067.34;10097646;28;20043;-72
2024/02/11 01:55:17;;;;;;;29.13;19.98;;;;;;;5.20;100.00;99061.81;10105104;28;20042;-73
2024/02/11 02:00:16;;;;;;;31.35;21.88;;;;;;;5.05;100.00;99060.38;10102258;28;20687;-73
2024/02/11 02:05:14;;;;;;;25.27;17.98;;;;;;;4.98;100.00;99054.66;10091968;28;20047;-73
2024/02/11 02:10:10;;;;;;;25.77;19.98;;;;;;;5.03;100.00;99068.03;10104312;28;20047;-72
2024/02/11 02:15:08;;;;;;;32.42;21.08;;;;;;;5.06;100.00;99072.84;10100534;28;20074;-72
2024/02/11 02:20:06;;;;;;;34.95;21.90;;;;;;;4.94;100.00;99064.53;10099991;28;20050;-75
2024/02/11 02:25:04;;;;;;;27.10;18.85;;;;;;;5.07;100.00;99069.00;10103772;28;20418;-74
2024/02/11 02:30:00;;;;;;;29.85;20.08;;;;;;;5.13;100.00;99067.72;10098134;28;20051;-75
2024/02/11 02:34:57;;;;;;;29.67;19.73;;;;;;;5.17;100.00;99074.06;10098272;28;20077;-74
2024/02/11 02:39:54;;;;;;;28.10;18.83;;;;;;;5.13;100.00;99067.72;10094752;28;20042;-73
2024/02/11 02:44:51;;;;;;;28.88;19.63;;;;;;;5.21;100.00;99045.22;10086905;28;20507;-75
2024/02/11 02:49:47;;;;;;;28.55;19.45;;;;;;;5.14;100.00;99042.22;10102011;28;20961;-71
2024/02/11 02:54:44;;;;;;;26.50;18.42;;;;;;;5.00;100.00;99047.81;10094115;28;20141;-71
2024/02/11 02:59:40;;;;;;;27.83;18.15;;;;;;;5.02;100.00;99050.22;10096618;28;20419;-71
2024/02/11 03:04:38;;;;;;;22.40;17.52;;;;;;;4.97;100.00;99037.63;10099558;28;20142;-72
2024/02/11 03:09:35;;;;;;;24.30;17.30;;;;;;;5.00;100.00;99014.53;10107866;28;20050;-71
2024/02/11 03:14:31;;;;;;;25.40;17.83;;;;;;;4.98;100.00;99012.13;10104786;28;20784;-70
2024/02/11 03:19:28;;;;;;;24.45;16.83;;;;;;;4.87;100.00;98999.25;10108170;28;20035;-70
2024/02/11 03:24:24;;;;;;;21.08;16.85;;;;;;;5.04;100.00;98989.16;10102721;28;20051;-70
2024/02/11 03:29:21;;;;;;;30.75;19.33;;;;;;;4.90;100.00;98987.75;10108446;28;20046;-73
2024/02/11 03:34:18;;;;;;;24.48;16.52;;;;;;;5.15;100.00;98995.03;10107766;28;20043;-73
2024/02/11 03:39:15;;;;;;;25.35;17.88;;;;;;;5.09;100.00;98996.31;10109377;28;20050;-73
2024/02/11 03:44:12;;;;;;;24.73;17.30;;;;;;;5.12;100.00;99003.81;10097136;28;20064;-77
2024/02/11 03:49:09;;;;;;;25.23;16.98;;;;;;;4.93;100.00;98998.75;10098300;28;20177;-77
2024/02/11 03:54:06;;;;;;;26.55;18.90;;;;;;;5.02;100.00;98990.63;10105791;28;20105;-76
2024/02/11 03:59:03;;;;;;;24.58;17.85;;;;;;;5.16;100.00;99007.47;10109183;28;20078;-77
2024/02/11 04:04:00;;;;;;;31.13;19.10;;;;;;;5.12;100.00;99014.63;10115553;28;20073;-73
2024/02/11 04:08:57;;;;;;;28.08;17.55;;;;;;;5.18;100.00;99026.91;10104510;28;20038;-76
2024/02/11 04:13:54;;;;;;;27.63;19.15;;;;;;;5.14;100.00;99036.00;10111413;28;20133;-75
2024/02/11 04:18:52;;;;;;;26.63;18.77;;;;;;;5.03;100.00;99035.53;10117394;28;20458;-76
2024/02/11 04:23:48;;;;;;;31.08;19.25;;;;;;;5.03;100.00;99019.28;10110028;28;20687;-75
2024/02/11 04:28:47;;;;;;;29.33;18.95;;;;;;;4.97;100.00;99009.75;10109541;28;20438;-75
2024/02/11 04:33:46;;;;;;;30.98;18.85;;;;;;;5.04;100.00;99015.47;10108579;28;20073;-75
2024/02/11 04:38:44;;;;;;;26.95;18.88;;;;;;;5.00;100.00;99019.94;10098829;28;20046;-74
2024/02/11 04:43:41;;;;;;;27.05;18.95;;;;;;;5.09;100.00;99018.00;10102553;28;20047;-75
2024/02/11 04:48:38;;;;;;;24.23;16.35;;;;;;;5.03;100.00;99019.28;10106851;28;20051;-74
2024/02/11 04:53:37;;;;;;;29.15;19.52;;;;;;;5.14;100.00;99012.41;10107009;28;20043;-74
2024/02/11 04:58:36;;;;;;;31.67;19.48;;;;;;;5.05;100.00;98998.88;10111621;28;20093;-74
2024/02/11 05:03:32;;;;;;;26.92;17.80;;;;;;;5.26;100.00;99001.69;10105303;28;20131;-75
2024/02/11 05:08:30;;;;;;;32.47;21.67;;;;;;;5.12;100.00;99001.09;10094862;28;20117;-75
2024/02/11 05:13:29;;;;;;;30.90;20.80;;;;;;;5.18;100.00;98999.03;10109285;28;20047;-74
2024/02/11 05:18:27;;;;;;;29.90;20.60;;;;;;;5.05;100.00;99006.22;10112286;28;20038;-75
2024/02/11 05:23:24;;;;;;;30.52;20.92;;;;;;;4.99;100.00;98996.66;10112316;28;20055;-74
2024/02/11 05:28:21;;;;;;;29.92;20.30;;;;;;;5.06;100.00;99002.41;10098676;28;20389;-75
2024/02/11 05:33:18;;;;;;;26.85;19.27;;;;;;;5.15;100.00;99005.06;10108696;28;20058;-74
2024/02/11 05:38:19;;;;;;;33.97;20.50;;;;;;;5.06;100.00;99002.41;10105121;28;20523;-74
2024/02/11 05:43:16;;;;;;;31.73;19.42;;;;;;;5.01;100.00;99006.09;10106352;28;20050;-77
2024/02/11 05:48:14;;;;;;;31.77;21.30;;;;;;;4.78;100.00;99002.78;10104315;28;20062;-76
2024/02/11 05:53:11;;;;;;;34.78;20.80;;;;;;;5.04;100.00;99010.84;10097949;28;20502;-76
2024/02/11 05:58:08;;;;;;;34.25;20.90;;;;;;;4.99;100.00;99018.31;10105690;28;20055;-77
2024/02/11 06:03:04;;;;;;;28.40;20.83;;;;;;;4.98;100.00;99008.63;10099850;28;20047;-77
2024/02/11 06:08:01;;;;;;;33.38;20.00;;;;;;;4.98;100.00;99016.75;10109603;28;20047;-75
2024/02/11 06:13:01;;;;;;;33.42;20.90;;;;;;;5.02;100.00;99017.69;10097031;28;20074;-75
2024/02/11 06:17:58;;;;;;;31.42;20.10;;;;;;;4.97;100.00;99020.59;10102514;28;20038;-75
2024/02/11 06:22:54;;;;;;;32.60;19.90;;;;;;;5.08;100.00;99027.22;10107611;28;20768;-74
2024/02/11 06:27:53;;;;;;;30.42;20.05;;;;;;;4.98;100.00;99033.00;10102542;28;20046;-76
2024/02/11 06:32:51;;;;;;;27.30;20.17;;;;;;;5.15;100.00;99040.28;10100671;28;20043;-75
2024/02/11 06:37:49;;;;;;;31.88;20.67;;;;;;;5.08;100.00;99048.91;10099710;28;20507;-76
2024/02/11 06:42:47;;;;;;;28.98;20.15;;;;;;;4.98;100.00;99055.47;10110865;28;20069;-76
2024/02/11 06:47:44;;;;;;;31.10;20.73;;;;;;;4.98;100.00;99054.66;10107898;28;20043;-76
2024/02/11 06:52:42;;;;;;;34.33;20.45;;;;;;;5.14;100.00;99057.66;10109694;28;20043;-74
2024/02/11 06:57:44;;;;;;;31.88;19.63;;;;;;;5.13;100.00;99066.91;10104155;28;20659;-74
2024/02/11 07:02:41;;;;;;;26.67;19.23;;;;;;;5.23;100.00;99078.22;10110231;28;20051;-76
2024/02/11 07:07:42;;;;;;;30.02;20.02;;;;;;;5.35;100.00;99088.38;10109456;28;20051;-75
2024/02/11 07:12:39;;;;;;;30.95;21.42;;;;;;;5.33;100.00;99114.22;10099372;28;20046;-76
2024/02/11 07:17:38;;;;;;;32.85;21.23;;;;;;;5.20;100.00;99111.38;10105457;28;20039;-76
2024/02/11 07:22:34;;;;;;;30.48;21.30;;;;;;;5.37;100.00;99123.31;10103576;28;20050;-75
2024/02/11 07:27:31;;;;;;;27.70;20.05;;;;;;;5.41;100.00;99132.41;10098107;28;20046;-76
2024/02/11 07:32:28;;;;;;;29.95;20.08;;;;;;;5.38;100.00;99135.72;10101161;28;20051;-75
2024/02/11 07:37:24;;;;;;;32.75;21.85;;;;;;;5.31;100.00;99152.47;10105759;28;20066;-74
2024/02/11 07:42:22;;;;;;;28.00;20.08;;;;;;;5.21;100.00;99152.81;10109282;28;20074;-76
2024/02/11 07:47:23;;;;;;;28.50;20.90;;;;;;;5.22;100.00;99157.91;10110403;28;20058;-77
2024/02/11 07:52:21;;;;;;;26.23;19.45;;;;;;;5.31;100.00;99157.09;10096593;28;20455;-74
2024/02/11 07:57:17;;;;;;;25.30;19.02;;;;;;;5.34;100.00;99153.75;10106233;28;20051;-73
2024/02/11 08:02:14;;;;;;;28.33;20.10;;;;;;;5.41;100.00;99154.06;10099465;28;20094;-72
2024/02/11 08:07:11;;;;;;;29.23;20.52;;;;;;;5.44;100.00;99150.72;10112897;28;20042;-75
2024/02/11 08:12:08;;;;;;;26.88;19.83;;;;;;;5.27;100.00;99160.47;10092333;28;20098;-73
2024/02/11 08:17:05;;;;;;;23.88;18.27;;;;;;;5.47;100.00;99152.78;10111249;28;20090;-72
2024/02/11 08:22:02;;;;;;;32.67;20.23;;;;;;;5.27;100.00;99155.03;10106431;28;20462;-75
2024/02/11 08:26:58;;;;;;;28.80;20.00;;;;;;;5.37;100.00;99158.53;10102482;28;20050;-76
2024/02/11 08:31:55;;;;;;;29.35;19.73;;;;;;;5.39;100.00;99161.72;10099012;28;20059;-76
2024/02/11 08:36:51;;;;;;;25.08;19.27;;;;;;;5.38;100.00;99170.97;10094431;28;20039;-76
2024/02/11 08:41:48;;;;;;;28.52;19.98;;;;;;;5.43;100.00;99165.38;10103867;28;20034;-76
2024/02/11 08:46:44;;;;;;;29.17;19.92;;;;;;;5.53;100.00;99166.97;10104700;28;20046;-75
2024/02/11 08:51:41;;;;;;;26.40;19.88;;;;;;;5.31;100.00;99173.38;10099109;28;20434;-72
2024/02/11 08:56:39;;;;;;;29.35;20.33;;;;;;;5.48;100.00;99176.06;10087233;28;20047;-72
2024/02/11 09:01:36;;;;;;;29.90;20.83;;;;;;;5.44;100.00;99177.81;10103315;28;20038;-72
2024/02/11 09:06:34;;;;;;;34.63;21.02;;;;;;;5.61;100.00;99180.50;10095067;28;20923;-72
2024/02/11 09:11:30;;;;;;;32.53;22.48;;;;;;;5.55;100.00;99181.00;10102227;28;20487;-73
2024/02/11 09:16:27;;;;;;;31.20;19.35;;;;;;;5.49;100.00;99188.50;10094143;28;20117;-73
2024/02/11 09:21:23;;;;;;;32.92;21.60;;;;;;;5.51;100.00;99178.13;10105263;28;20057;-73
2024/02/11 09:26:20;;;;;;;39.15;22.00;;;;;;;5.28;100.00;99182.94;10098501;28;20094;-72
2024/02/11 09:31:17;;;;;;;33.85;22.35;;;;;;;5.48;100.00;99178.78;10102523;28;20058;-73
2024/02/11 09:36:13;;;;;;;36.40;21.98;;;;;;;5.44;100.00;99175.09;10103417;28;20050;-73
2024/02/11 09:41:10;;;;;;;29.80;18.42;;;;;;;5.63;100.00;99183.69;10071672;28;20051;-74
2024/02/11 09:46:07;;;;;;;20.48;14.98;;;;;;;5.63;100.00;99182.88;10094154;28;20165;-73
2024/02/11 09:51:07;;;;;;;35.88;22.17;;;;;;;5.60;100.00;99195.19;10088509;28;20042;-74
2024/02/11 09:56:04;;;;;;;33.90;20.77;;;;;;;5.79;100.00;99208.38;10096327;28;20051;-73
2024/02/11 10:01:01;;;;;;;35.90;22.27;;;;;;;5.67;100.00;99211.75;10097827;28;20047;-75
2024/02/11 10:05:58;;;;;;;37.80;23.75;;;;;;;5.54;100.00;99220.84;10105245;28;20491;-74
2024/02/11 10:10:59;;;;;;;37.22;22.40;;;;;;;5.61;100.00;99229.28;10088842;28;20053;-73
2024/02/11 10:15:57;;;;;;;33.17;22.60;;;;;;;5.70;100.00;99230.06;10097123;28;20043;-72
2024/02/11 10:20:53;;;;;;;45.95;24.67;;;;;;;5.70;100.00;99232.78;10102977;28;20071;-72
2024/02/11 10:25:50;;;;;;;36.00;23.25;;;;;;;5.65;100.00;99224.03;10100931;28;20053;-72
2024/02/11 10:30:47;;;;;;;39.67;25.05;;;;;;;5.61;100.00;99229.28;10098410;28;20045;-72
2024/02/11 10:35:43;;;;;;;38.30;24.15;;;;;;;5.63;100.00;99227.06;10101120;28;20142;-72
2024/02/11 10:40:43;;;;;;;37.67;24.20;;;;;;;5.64;100.00;99233.28;10101891;28;20047;-73
2024/02/11 10:45:40;;;;;;;37.10;23.27;;;;;;;5.62;100.00;99230.91;10093483;28;20466;-73
2024/02/11 10:50:37;;;;;;;38.95;23.90;;;;;;;5.63;100.00;99228.97;10101201;28;20484;-72
2024/02/11 10:55:40;;;;;;;41.50;24.55;;;;;;;5.57;100.00;99225.66;10096829;28;20051;-72
2024/02/11 11:00:39;;;;;;;38.20;23.58;;;;;;;5.77;100.00;99234.22;10089433;28;20652;-72
2024/02/11 11:05:39;;;;;;;39.25;24.20;;;;;;;5.76;100.00;99224.50;10098549;28;20047;-71
2024/02/11 11:10:36;;;;;;;38.85;24.50;;;;;;;5.93;100.00;99234.53;10093301;28;20047;-70
2024/02/11 11:15:34;;;;;;;47.67;25.50;;;;;;;5.69;100.00;99236.63;10086612;28;20555;-72
2024/02/11 11:20:33;;;;;;;40.10;25.45;;;;;;;5.86;100.00;99235.81;10106348;28;20062;-73
2024/02/11 11:25:31;;;;;;;42.83;25.17;;;;;;;5.78;100.00;99239.34;10089548;28;20590;-71
2024/02/11 11:30:28;;;;;;;42.05;24.40;;;;;;;5.62;100.00;99232.81;10099547;28;20961;-69
2024/02/11 11:35:25;;;;;;;40.85;25.52;;;;;;;5.84;100.00;99237.25;10097808;28;20563;-70
2024/02/11 11:40:25;;;;;;;42.67;25.10;;;;;;;5.78;100.00;99227.66;10091312;28;20086;-69
2024/02/11 11:45:22;;;;;;;41.70;24.48;;;;;;;5.89;100.00;99223.50;10098967;28;20242;-73
2024/02/11 11:50:19;;;;;;;35.97;23.20;;;;;;;5.92;100.00;99214.75;10105139;28;20190;-77
2024/02/11 11:55:16;;;;;;;44.10;25.25;;;;;;;5.95;100.00;99216.81;10102017;28;20089;-74
2024/02/11 12:00:13;;;;;;;42.60;25.60;;;;;;;6.12;100.00;99226.81;10106210;28;20466;-72
2024/02/11 12:05:09;;;;;;;40.63;25.50;;;;;;;6.05;100.00;99231.97;10106209;28;20057;-73
2024/02/11 12:10:07;;;;;;;36.72;24.73;;;;;;;6.01;100.00;99239.97;10097692;28;20131;-73
2024/02/11 12:15:04;;;;;;;40.75;25.02;;;;;;;5.95;100.00;99238.53;10099092;28;20400;-72
2024/02/11 12:20:01;;;;;;;39.80;24.05;;;;;;;5.87;100.00;99239.31;10089745;28;20657;-74
2024/02/11 12:24:57;;;;;;;38.78;24.27;;;;;;;5.84;100.00;99243.47;10097815;28;20059;-72
2024/02/11 12:29:58;;;;;;;35.13;22.77;;;;;;;5.98;100.00;99243.31;10095739;28;20043;-73
2024/02/11 12:34:56;;;;;;;42.10;25.58;;;;;;;5.73;100.00;99235.97;10091675;28;20050;-72
2024/02/11 12:39:54;;;;;;;36.88;23.45;;;;;;;5.86;100.00;99235.00;10107916;28;20526;-75
2024/02/11 12:44:52;;;;;;;34.03;23.02;;;;;;;5.93;100.00;99232.59;10096257;28;20039;-74
2024/02/11 12:49:49;;;;;;;38.47;24.17;;;;;;;5.78;100.00;99227.66;10114922;28;20089;-72
2024/02/11 12:54:46;;;;;;;34.97;22.05;;;;;;;5.90;100.00;99230.53;10118945;28;20053;-72
2024/02/11 12:59:42;;;;;;;34.78;22.30;;;;;;;5.85;100.00;99222.59;10112036;28;20467;-73
2024/02/11 13:04:39;;;;;;;33.05;21.60;;;;;;;6.05;100.00;99227.31;10107267;28;20055;-73
2024/02/11 13:09:36;;;;;;;35.80;23.48;;;;;;;6.16;100.00;99227.78;10103721;28;20090;-73
2024/02/11 13:14:32;;;;;;;38.13;24.33;;;;;;;6.00;100.00;99226.72;10105692;28;20046;-72
2024/02/11 13:19:29;;;;;;;34.28;23.60;;;;;;;6.09;100.00;99228.28;10102306;28;20057;-72
2024/02/11 13:24:27;;;;;;;32.85;23.33;;;;;;;6.22;100.00;99225.66;10103328;28;20042;-74
2024/02/11 13:29:24;;;;;;;34.10;23.35;;;;;;;6.08;100.00;99229.41;10106225;28;20139;-74
2024/02/11 13:34:20;;;;;;;31.98;22.58;;;;;;;6.17;100.00;99228.56;10094615;28;20837;-75
2024/02/11 13:39:18;;;;;;;37.17;23.45;;;;;;;6.06;100.00;99228.94;10096863;28;20051;-74
2024/02/11 13:44:14;;;;;;;41.47;22.13;;;;;;;6.22;100.00;99217.53;10097507;28;20054;-75
2024/02/11 13:49:11;;;;;;;41.47;24.67;;;;;;;6.17;100.00;99215.00;10109861;28;20068;-73
2024/02/11 13:54:07;;;;;;;39.13;23.70;;;;;;;6.00;100.00;99224.00;10086864;28;20058;-74
2024/02/11 13:59:04;;;;;;;33.90;22.48;;;;;;;6.16;100.00;99221.56;10104091;28;20051;-74
2024/02/11 14:04:02;;;;;;;33.83;21.63;;;;;;;6.08;100.00;99226.69;10101303;28;20067;-74
2024/02/11 14:08:59;;;;;;;34.22;21.67;;;;;;;6.08;100.00;99226.69;10090104;28;20582;-74
2024/02/11 14:13:55;;;;;;;35.92;23.08;;;;;;;5.96;100.00;99223.84;10084788;28;20183;-75
2024/02/11 14:18:52;;;;;;;38.22;23.02;;;;;;;5.98;100.00;99232.44;10094880;28;20134;-74
2024/02/11 14:23:49;;;;;;;34.80;22.05;;;;;;;5.90;100.00;99241.38;10089483;28;20069;-73
2024/02/11 14:28:49;;;;;;;39.17;23.13;;;;;;;5.81;100.00;99237.91;10097500;28;20094;-74
2024/02/11 14:33:45;;;;;;;37.58;22.15;;;;;;;5.90;100.00;99235.97;10095273;28;20049;-74
2024/02/11 14:38:43;;;;;;;32.53;21.27;;;;;;;5.82;100.00;99234.06;10096183;28;20047;-74
2024/02/11 14:43:40;;;;;;;32.40;21.95;;;;;;;5.88;100.00;99228.13;10094109;28;20132;-75
2024/02/11 14:48:37;;;;;;;34.28;21.55;;;;;;;5.84;100.00;99234.53;10086891;28;20050;-72
2024/02/11 14:53:34;;;;;;;33.28;21.42;;;;;;;5.70;100.00;99238.22;10093305;28;20066;-72
2024/02/11 14:58:31;;;;;;;38.13;21.25;;;;;;;5.93;100.00;99229.09;10094467;28;20057;-75
2024/02/11 15:03:31;;;;;;;35.28;21.35;;;;;;;5.85;100.00;99238.84;10097753;28;20049;-77
2024/02/11 15:08:31;;;;;;;;;;;;;;;5.80;100.00;99231.69;10107925;28;20073;-75
2024/02/11 15:13:28;;;;;;;43.88;22.98;;;;;;;5.83;100.00;99230.25;10086528;28;19922;-74
2024/02/11 15:18:25;;;;;;;31.40;22.58;;;;;;;5.80;100.00;99237.09;10104900;28;20047;-74
2024/02/11 15:23:21;;;;;;;38.03;21.95;;;;;;;5.74;100.00;99243.81;10104125;28;20085;-75
2024/02/11 15:28:18;;;;;;;35.72;22.45;;;;;;;5.61;100.00;99248.28;10102041;28;20074;-74
2024/02/11 15:33:16;;;;;;;37.38;22.50;;;;;;;5.69;100.00;99258.34;10102152;28;20058;-75
2024/02/11 15:38:12;;;;;;;34.47;23.50;;;;;;;5.61;100.00;99256.41;10110507;28;20154;-74
2024/02/11 15:43:13;;;;;;;41.67;23.55;;;;;;;5.59;100.00;99253.25;10106179;28;20058;-75
2024/02/11 15:48:13;;;;;;;37.28;23.60;;;;;;;5.73;100.00;99263.09;10111674;28;20054;-75
2024/02/11 15:53:09;;;;;;;35.20;24.02;;;;;;;5.65;100.00;99267.44;10106537;28;20042;-75
2024/02/11 15:58:06;;;;;;;41.85;23.08;;;;;;;5.38;100.00;99265.81;10114540;28;20132;-74
2024/02/11 16:03:03;;;;;;;34.67;22.92;;;;;;;5.46;100.00;99271.25;10101700;28;20054;-74
2024/02/11 16:08:00;;;;;;;37.40;23.95;;;;;;;5.50;100.00;99266.00;10104275;28;20419;-75
2024/02/11 16:12:57;;;;;;;39.80;23.40;;;;;;;5.54;100.00;99272.38;10097122;28;20039;-75
2024/02/11 16:17:55;;;;;;;34.33;23.58;;;;;;;5.43;100.00;99276.50;10095576;28;20050;-75
2024/02/11 16:22:52;;;;;;;39.28;22.15;;;;;;;5.57;100.00;99285.31;10103747;28;20046;-75
2024/02/11 16:27:57;;;;;;;36.65;23.30;;;;;;;5.33;100.00;99282.25;10098431;28;20760;-75
2024/02/11 16:32:57;;;;;;;32.70;22.38;;;;;;;5.46;100.00;99292.94;10098252;28;20074;-76
2024/02/11 16:37:54;;;;;;;38.33;22.70;;;;;;;5.39;100.00;99294.53;10094564;28;20047;-75
2024/02/11 16:42:52;;;;;;;35.55;23.00;;;;;;;5.36;100.00;99297.88;10095643;28;20094;-74
2024/02/11 16:47:48;;;;;;;33.30;22.92;;;;;;;5.31;100.00;99298.03;10095819;28;21042;-76
2024/02/11 16:52:45;;;;;;;33.63;21.80;;;;;;;5.43;100.00;99303.59;10095313;28;20505;-75
2024/02/11 16:57:42;;;;;;;37.13;22.58;;;;;;;5.27;100.00;99304.09;10101497;28;20051;-74
2024/02/11 17:02:38;;;;;;;34.63;22.05;;;;;;;5.39;100.00;99308.09;10090383;28;20121;-75
2024/02/11 17:07:35;;;;;;;36.35;22.80;;;;;;;5.41;100.00;99311.28;10098640;28;20061;-74
2024/02/11 17:12:33;;;;;;;31.13;21.80;;;;;;;5.42;100.00;99318.28;10095577;28;20109;-73
2024/02/11 17:17:29;;;;;;;36.55;22.10;;;;;;;5.43;100.00;99314.47;10104401;28;20047;-73
2024/02/11 17:22:26;;;;;;;37.15;24.45;;;;;;;5.44;100.00;99316.06;10103903;28;20499;-73
2024/02/11 17:27:23;;;;;;;36.90;22.15;;;;;;;5.40;100.00;99332.16;10100931;28;20113;-75
2024/02/11 17:32:19;;;;;;;32.00;21.70;;;;;;;5.35;100.00;99323.38;10108194;28;20046;-74
2024/02/11 17:37:25;;;;;;;36.50;23.02;;;;;;;5.37;100.00;99337.44;10098957;28;20483;-75
2024/02/11 17:42:21;;;;;;;35.80;24.30;;;;;;;5.34;100.00;99338.03;10098143;28;20054;-75
2024/02/11 17:47:19;;;;;;;43.05;23.05;;;;;;;5.26;100.00;99337.72;10101290;28;20506;-73
2024/02/11 17:52:19;;;;;;;39.13;22.95;;;;;;;5.19;100.00;99337.38;10100462;28;20054;-75
2024/02/11 17:57:16;;;;;;;41.55;22.98;;;;;;;5.25;100.00;99340.75;10112541;28;20055;-74
2024/02/11 18:02:12;;;;;;;34.78;21.30;;;;;;;5.22;100.00;99347.59;10102758;28;20108;-74
2024/02/11 18:07:09;;;;;;;38.72;22.48;;;;;;;5.20;100.00;99344.41;10099109;28;20058;-73
2024/02/11 18:12:05;;;;;;;40.78;22.88;;;;;;;5.15;100.00;99347.28;10096380;28;20137;-75
2024/02/11 18:17:04;;;;;;;36.92;23.23;;;;;;;5.16;100.00;99342.66;10100817;28;20054;-74
2024/02/11 18:22:01;;;;;;;36.17;23.80;;;;;;;5.10;100.00;99344.69;10093773;28;20078;-74
2024/02/11 18:26:59;;;;;;;37.60;22.60;;;;;;;5.15;100.00;99341.84;10097196;28;20527;-75
2024/02/11 18:31:56;;;;;;;33.05;23.02;;;;;;;5.05;100.00;99342.13;10098174;28;20129;-74
2024/02/11 18:36:54;;;;;;;33.42;22.30;;;;;;;4.88;100.00;99336.66;10097493;28;20427;-74
2024/02/11 18:41:51;;;;;;;39.80;22.52;;;;;;;5.05;100.00;99347.53;10091010;28;20101;-73
2024/02/11 18:46:49;;;;;;;33.70;22.25;;;;;;;5.03;100.00;99341.63;10095513;28;20138;-74
2024/02/11 18:51:46;;;;;;;39.20;22.75;;;;;;;5.03;100.00;99339.72;10092187;28;20054;-75
2024/02/11 18:56:42;;;;;;;32.97;21.23;;;;;;;5.12;100.00;99349.81;10087197;28;20051;-74
2024/02/11 19:01:40;;;;;;;31.95;21.92;;;;;;;5.07;100.00;99346.13;10093618;28;20051;-74
2024/02/11 19:06:36;;;;;;;36.72;21.63;;;;;;;5.08;100.00;99346.91;10092403;28;21245;-75
2024/02/11 19:11:33;;;;;;;33.50;21.30;;;;;;;5.07;100.00;99356.16;10088817;28;20086;-75
2024/02/11 19:16:29;;;;;;;31.05;20.45;;;;;;;5.14;100.00;99356.50;10093241;28;20055;-75
2024/02/11 19:21:26;;;;;;;30.55;20.15;;;;;;;5.10;100.00;99355.53;10085421;28;20058;-74
2024/02/11 19:26:24;;;;;;;29.48;20.20;;;;;;;5.02;100.00;99354.41;10092804;28;20109;-77
2024/02/11 19:31:21;;;;;;;29.65;19.98;;;;;;;5.05;100.00;99363.81;10096332;28;20047;-76
2024/02/11 19:36:20;;;;;;;31.35;18.95;;;;;;;5.01;100.00;99368.25;10095413;28;20113;-74
2024/02/11 19:41:17;;;;;;;27.42;19.90;;;;;;;5.06;100.00;99370.84;10098626;28;20051;-74
2024/02/11 19:46:13;;;;;;;29.75;19.90;;;;;;;5.10;100.00;99371.78;10105845;28;20054;-74
2024/02/11 19:51:11;;;;;;;28.83;19.30;;;;;;;5.15;100.00;99368.94;10092928;28;20062;-73
2024/02/11 19:56:08;;;;;;;28.60;20.10;;;;;;;5.14;100.00;99372.75;10103569;28;20058;-75
2024/02/11 20:01:05;;;;;;;29.48;22.27;;;;;;;5.12;100.00;99374.97;10109372;28;20047;-74
2024/02/11 20:06:05;;;;;;;29.92;20.63;;;;;;;5.10;100.00;99371.78;10100723;28;20600;-75
2024/02/11 20:11:04;;;;;;;29.63;19.48;;;;;;;4.97;100.00;99375.41;10107436;28;20051;-74
2024/02/11 20:16:01;;;;;;;25.60;18.30;;;;;;;5.17;100.00;99377.53;10100209;28;20054;-76
2024/02/11 20:20:58;;;;;;;26.75;19.13;;;;;;;5.10;100.00;99385.31;10103189;28;20047;-75
2024/02/11 20:25:54;;;;;;;24.73;18.88;;;;;;;5.15;100.00;99390.63;10096505;28;20094;-74
2024/02/11 20:30:51;;;;;;;25.75;18.77;;;;;;;5.18;100.00;99392.69;10102324;28;20121;-74
2024/02/11 20:35:48;;;;;;;26.95;18.90;;;;;;;5.14;100.00;99405.28;10092641;28;20047;-74
2024/02/11 20:40:45;;;;;;;23.63;17.70;;;;;;;5.11;100.00;99405.91;10094993;28;20514;-72
2024/02/11 20:45:44;;;;;;;31.75;19.15;;;;;;;5.07;100.00;99410.34;10095295;28;20057;-74
2024/02/11 20:50:41;;;;;;;27.50;18.85;;;;;;;5.12;100.00;99406.69;10099328;28;20054;-81
2024/02/11 20:55:38;;;;;;;34.72;19.73;;;;;;;5.04;100.00;99400.94;10088153;28;20673;-78
2024/02/11 21:00:38;;;;;;;30.17;19.63;;;;;;;5.09;100.00;99408.13;10097858;28;20050;-74
2024/02/11 21:05:35;;;;;;;27.60;19.17;;;;;;;5.11;100.00;99403.19;10094171;28;20050;-73
2024/02/11 21:10:32;;;;;;;29.33;19.27;;;;;;;5.12;100.00;99412.91;10095261;28;20073;-74
2024/02/11 21:15:30;;;;;;;25.02;18.08;;;;;;;5.05;100.00;99409.84;10094196;28;20051;-73
2024/02/11 21:20:29;;;;;;;28.80;18.35;;;;;;;5.06;100.00;99414.19;10112964;28;20042;-74
2024/02/11 21:25:26;;;;;;;26.52;18.58;;;;;;;5.10;100.00;99420.53;10099565;28;20054;-73
2024/02/11 21:30:25;;;;;;;31.00;19.38;;;;;;;5.10;100.00;99425.19;10101731;28;20074;-75
2024/02/11 21:35:22;;;;;;;25.00;18.67;;;;;;;5.10;100.00;99425.97;10088136;28;20058;-76
2024/02/11 21:40:19;;;;;;;28.38;18.10;;;;;;;5.08;100.00;99428.19;10093710;28;20045;-74
2024/02/11 21:45:15;;;;;;;27.05;17.90;;;;;;;5.08;100.00;99422.78;10095808;28;20043;-74
2024/02/11 21:50:12;;;;;;;29.27;19.73;;;;;;;5.07;100.00;99421.19;10106798;28;20054;-73
2024/02/11 21:55:10;;;;;;;25.85;18.23;;;;;;;5.08;100.00;99417.34;10095288;28;20146;-73
2024/02/11 22:00:11;;;;;;;26.00;17.52;;;;;;;5.07;100.00;99424.69;10106870;28;20039;-77
2024/02/11 22:05:09;;;;;;;26.35;17.45;;;;;;;5.07;100.00;99423.91;10098366;28;20694;-75
2024/02/11 22:10:08;;;;;;;25.67;17.77;;;;;;;5.06;100.00;99420.38;10096526;28;20090;-75
2024/02/11 22:15:05;;;;;;;22.45;16.33;;;;;;;5.06;100.00;99419.59;10093817;28;20081;-72
2024/02/11 22:20:03;;;;;;;22.35;16.73;;;;;;;5.04;100.00;99419.09;10094175;28;20059;-73
2024/02/11 22:25:00;;;;;;;21.85;15.98;;;;;;;5.04;100.00;99424.53;10093255;28;20043;-74
2024/02/11 22:29:58;;;;;;;24.00;15.68;;;;;;;5.04;100.00;99430.75;10088605;28;20303;-74